sensor_id;sensor_type;location;lat;lon;timestamp;pressure;altitude;pressure_sealevel;temperature;humidity
55685;BME280;41883;49.544;8.646;2023-02-22T00:00:32;100434.09;;;5.16;nan
55685;BME280;41883;49.544;8.646;2023-02-22T00:03:07;100438.97;;;5.20;nan
55685;BME280;41883;49.544;8.646;2023-02-22T00:05:34;100434.09;;;5.27;nan
55685;BME280;41883;49.544;8.646;2023-02-22T00:07:59;100433.69;;;5.43;nan
55685;BME280;41883;49.544;8.646;2023-02-22T00:10:25;100429.03;;;5.58;nan
55685;BME280;41883;49.544;8.646;2023-02-22T00:12:51;100426.75;;;5.64;nan
55685;BME280;41883;49.544;8.646;2023-02-22T00:15:17;100434.25;;;5.69;nan
55685;BME280;41883;49.544;8.646;2023-02-22T00:17:43;100430.91;;;5.67;nan
55685;BME280;41883;49.544;8.646;2023-02-22T00:20:09;100438.22;;;5.63;nan
55685;BME280;41883;49.544;8.646;2023-02-22T00:22:39;100430.00;;;5.57;nan
55685;BME280;41883;49.544;8.646;2023-02-22T00:25:04;100430.25;;;5.53;nan
55685;BME280;41883;49.544;8.646;2023-02-22T00:27:30;100429.53;;;5.51;nan
55685;BME280;41883;49.544;8.646;2023-02-22T00:29:55;100416.66;;;5.48;nan
55685;BME280;41883;49.544;8.646;2023-02-22T00:32:23;100428.09;;;5.47;nan
55685;BME280;41883;49.544;8.646;2023-02-22T00:34:52;100424.03;;;5.43;nan
55685;BME280;41883;49.544;8.646;2023-02-22T00:37:18;100426.19;;;5.38;nan
55685;BME280;41883;49.544;8.646;2023-02-22T00:39:47;100420.72;;;5.30;nan
55685;BME280;41883;49.544;8.646;2023-02-22T00:42:13;100420.47;;;5.22;nan
55685;BME280;41883;49.544;8.646;2023-02-22T00:44:38;100421.34;;;5.11;nan
55685;BME280;41883;49.544;8.646;2023-02-22T00:47:04;100426.81;;;4.97;nan
55685;BME280;41883;49.544;8.646;2023-02-22T00:49:29;100425.97;;;4.85;nan
55685;BME280;41883;49.544;8.646;2023-02-22T00:51:54;100424.38;;;4.71;nan
55685;BME280;41883;49.544;8.646;2023-02-22T00:54:20;100417.47;;;4.59;nan
55685;BME280;41883;49.544;8.646;2023-02-22T00:56:47;100411.13;;;4.50;nan
55685;BME280;41883;49.544;8.646;2023-02-22T00:59:14;100411.59;;;4.44;nan
55685;BME280;41883;49.544;8.646;2023-02-22T01:01:40;100416.47;;;4.37;nan
55685;BME280;41883;49.544;8.646;2023-02-22T01:04:05;100412.63;;;4.30;nan
55685;BME280;41883;49.544;8.646;2023-02-22T01:06:31;100413.94;;;4.24;nan
55685;BME280;41883;49.544;8.646;2023-02-22T01:08:56;100406.63;;;4.17;nan
55685;BME280;41883;49.544;8.646;2023-02-22T01:11:21;100399.00;;;4.14;nan
55685;BME280;41883;49.544;8.646;2023-02-22T01:13:49;100396.72;;;4.09;nan
55685;BME280;41883;49.544;8.646;2023-02-22T01:16:18;100394.44;;;4.04;nan
55685;BME280;41883;49.544;8.646;2023-02-22T01:18:43;100395.50;;;4.02;nan
55685;BME280;41883;49.544;8.646;2023-02-22T01:21:11;100399.19;;;3.99;nan
55685;BME280;41883;49.544;8.646;2023-02-22T01:23:36;100401.22;;;3.96;nan
55685;BME280;41883;49.544;8.646;2023-02-22T01:26:02;100393.69;;;3.91;nan
55685;BME280;41883;49.544;8.646;2023-02-22T01:28:30;100396.50;;;3.88;nan
55685;BME280;41883;49.544;8.646;2023-02-22T01:30:55;100395.69;;;3.88;nan
55685;BME280;41883;49.544;8.646;2023-02-22T01:33:21;100385.13;;;3.89;nan
55685;BME280;41883;49.544;8.646;2023-02-22T01:35:49;100375.72;;;3.87;nan
55685;BME280;41883;49.544;8.646;2023-02-22T01:38:15;100390.44;;;3.88;nan
55685;BME280;41883;49.544;8.646;2023-02-22T01:40:41;100386.78;;;3.90;nan
55685;BME280;41883;49.544;8.646;2023-02-22T01:45:44;100384.88;;;3.92;nan
55685;BME280;41883;49.544;8.646;2023-02-22T01:48:13;100386.56;;;3.93;nan
55685;BME280;41883;49.544;8.646;2023-02-22T01:50:44;100378.50;;;3.96;nan
55685;BME280;41883;49.544;8.646;2023-02-22T01:53:13;100386.94;;;4.00;nan
55685;BME280;41883;49.544;8.646;2023-02-22T01:55:40;100380.03;;;3.99;nan
55685;BME280;41883;49.544;8.646;2023-02-22T01:58:06;100374.09;;;3.97;nan
55685;BME280;41883;49.544;8.646;2023-02-22T02:00:33;100374.19;;;3.95;nan
55685;BME280;41883;49.544;8.646;2023-02-22T02:03:04;100370.88;;;3.93;nan
55685;BME280;41883;49.544;8.646;2023-02-22T02:05:36;100372.88;;;3.90;nan
55685;BME280;41883;49.544;8.646;2023-02-22T02:08:09;100366.91;;;3.88;nan
55685;BME280;41883;49.544;8.646;2023-02-22T02:10:38;100368.31;;;3.80;nan
55685;BME280;41883;49.544;8.646;2023-02-22T02:13:05;100370.31;;;3.77;nan
55685;BME280;41883;49.544;8.646;2023-02-22T02:15:31;100364.47;;;3.73;nan
55685;BME280;41883;49.544;8.646;2023-02-22T02:17:58;100360.41;;;3.69;nan
55685;BME280;41883;49.544;8.646;2023-02-22T02:20:43;100363.34;;;3.65;nan
55685;BME280;41883;49.544;8.646;2023-02-22T02:33:56;100351.41;;;3.49;nan
55685;BME280;41883;49.544;8.646;2023-02-22T02:36:28;100343.88;;;3.45;nan
55685;BME280;41883;49.544;8.646;2023-02-22T02:43:58;100338.75;;;3.43;nan
55685;BME280;41883;49.544;8.646;2023-02-22T02:46:37;100335.31;;;3.43;nan
55685;BME280;41883;49.544;8.646;2023-02-22T02:49:07;100332.38;;;3.47;nan
55685;BME280;41883;49.544;8.646;2023-02-22T02:51:40;100328.69;;;3.50;nan
55685;BME280;41883;49.544;8.646;2023-02-22T02:54:08;100329.31;;;3.53;nan
55685;BME280;41883;49.544;8.646;2023-02-22T02:56:34;100325.66;;;3.56;nan
55685;BME280;41883;49.544;8.646;2023-02-22T02:59:00;100327.31;;;3.57;nan
55685;BME280;41883;49.544;8.646;2023-02-22T03:01:38;100323.38;;;3.51;nan
55685;BME280;41883;49.544;8.646;2023-02-22T03:17:13;100326.44;;;3.08;nan
55685;BME280;41883;49.544;8.646;2023-02-22T03:19:49;100329.47;;;3.02;nan
55685;BME280;41883;49.544;8.646;2023-02-22T03:25:23;100334.44;;;2.94;nan
55685;BME280;41883;49.544;8.646;2023-02-22T03:27:57;100325.97;;;2.90;nan
55685;BME280;41883;49.544;8.646;2023-02-22T03:30:29;100324.31;;;2.89;nan
55685;BME280;41883;49.544;8.646;2023-02-22T03:32:57;100329.63;;;2.88;nan
55685;BME280;41883;49.544;8.646;2023-02-22T03:35:24;100326.19;;;2.87;nan
55685;BME280;41883;49.544;8.646;2023-02-22T03:37:55;100328.06;;;2.85;nan
55685;BME280;41883;49.544;8.646;2023-02-22T03:40:24;100335.16;;;2.83;nan
55685;BME280;41883;49.544;8.646;2023-02-22T03:42:53;100330.25;;;2.79;nan
55685;BME280;41883;49.544;8.646;2023-02-22T03:45:20;100336.34;;;2.79;nan
55685;BME280;41883;49.544;8.646;2023-02-22T03:47:50;100328.50;;;2.79;nan
55685;BME280;41883;49.544;8.646;2023-02-22T03:50:17;100317.94;;;2.81;nan
55685;BME280;41883;49.544;8.646;2023-02-22T03:52:44;100317.75;;;2.84;nan
55685;BME280;41883;49.544;8.646;2023-02-22T03:55:11;100321.28;;;2.83;nan
55685;BME280;41883;49.544;8.646;2023-02-22T03:57:38;100315.13;;;2.84;nan
55685;BME280;41883;49.544;8.646;2023-02-22T04:00:08;100316.06;;;2.83;nan
55685;BME280;41883;49.544;8.646;2023-02-22T04:02:35;100310.00;;;2.82;nan
55685;BME280;41883;49.544;8.646;2023-02-22T04:05:00;100314.59;;;2.79;nan
55685;BME280;41883;49.544;8.646;2023-02-22T04:07:26;100307.81;;;2.76;nan
55685;BME280;41883;49.544;8.646;2023-02-22T04:09:51;100307.19;;;2.72;nan
55685;BME280;41883;49.544;8.646;2023-02-22T04:12:16;100305.66;;;2.70;nan
55685;BME280;41883;49.544;8.646;2023-02-22T04:14:42;100305.72;;;2.68;nan
55685;BME280;41883;49.544;8.646;2023-02-22T04:17:07;100299.69;;;2.68;nan
55685;BME280;41883;49.544;8.646;2023-02-22T04:19:33;100309.41;;;2.66;nan
55685;BME280;41883;49.544;8.646;2023-02-22T04:21:59;100306.88;;;2.64;nan
55685;BME280;41883;49.544;8.646;2023-02-22T04:24:24;100295.84;;;2.61;nan
55685;BME280;41883;49.544;8.646;2023-02-22T04:26:49;100295.19;;;2.57;nan
55685;BME280;41883;49.544;8.646;2023-02-22T04:29:15;100297.06;;;2.55;nan
55685;BME280;41883;49.544;8.646;2023-02-22T04:31:40;100294.59;;;2.53;nan
55685;BME280;41883;49.544;8.646;2023-02-22T04:34:05;100300.84;;;2.51;nan
55685;BME280;41883;49.544;8.646;2023-02-22T04:36:31;100296.56;;;2.50;nan
55685;BME280;41883;49.544;8.646;2023-02-22T04:38:57;100301.03;;;2.48;nan
55685;BME280;41883;49.544;8.646;2023-02-22T04:41:22;100301.03;;;2.48;nan
55685;BME280;41883;49.544;8.646;2023-02-22T04:43:48;100302.00;;;2.47;nan
55685;BME280;41883;49.544;8.646;2023-02-22T04:46:13;100300.94;;;2.49;nan
55685;BME280;41883;49.544;8.646;2023-02-22T04:48:38;100303.34;;;2.52;nan
55685;BME280;41883;49.544;8.646;2023-02-22T04:51:04;100303.25;;;2.54;nan
55685;BME280;41883;49.544;8.646;2023-02-22T04:53:29;100303.97;;;2.56;nan
55685;BME280;41883;49.544;8.646;2023-02-22T04:55:54;100306.50;;;2.58;nan
55685;BME280;41883;49.544;8.646;2023-02-22T04:58:20;100314.41;;;2.56;nan
55685;BME280;41883;49.544;8.646;2023-02-22T05:00:46;100309.09;;;2.58;nan
55685;BME280;41883;49.544;8.646;2023-02-22T05:03:11;100305.63;;;2.57;nan
55685;BME280;41883;49.544;8.646;2023-02-22T05:05:36;100310.97;;;2.55;nan
55685;BME280;41883;49.544;8.646;2023-02-22T05:08:02;100304.28;;;2.51;nan
55685;BME280;41883;49.544;8.646;2023-02-22T05:10:27;100305.25;;;2.50;nan
55685;BME280;41883;49.544;8.646;2023-02-22T05:12:53;100316.72;;;2.48;nan
55685;BME280;41883;49.544;8.646;2023-02-22T05:15:20;100307.44;;;2.44;nan
55685;BME280;41883;49.544;8.646;2023-02-22T05:17:46;100305.75;;;2.43;nan
55685;BME280;41883;49.544;8.646;2023-02-22T05:20:22;100306.69;;;2.42;nan
55685;BME280;41883;49.544;8.646;2023-02-22T05:22:54;100306.91;;;2.39;nan
55685;BME280;41883;49.544;8.646;2023-02-22T05:25:19;100300.00;;;2.38;nan
55685;BME280;41883;49.544;8.646;2023-02-22T05:27:52;100302.53;;;2.39;nan
55685;BME280;41883;49.544;8.646;2023-02-22T05:30:19;100298.97;;;2.40;nan
55685;BME280;41883;49.544;8.646;2023-02-22T05:32:44;100298.13;;;2.40;nan
55685;BME280;41883;49.544;8.646;2023-02-22T05:35:10;100299.78;;;2.41;nan
55685;BME280;41883;49.544;8.646;2023-02-22T05:37:38;100291.97;;;2.41;nan
55685;BME280;41883;49.544;8.646;2023-02-22T05:40:04;100288.66;;;2.39;nan
55685;BME280;41883;49.544;8.646;2023-02-22T05:42:31;100287.47;;;2.43;nan
55685;BME280;41883;49.544;8.646;2023-02-22T05:44:57;100287.38;;;2.44;nan
55685;BME280;41883;49.544;8.646;2023-02-22T05:47:25;100282.25;;;2.43;nan
55685;BME280;41883;49.544;8.646;2023-02-22T05:49:51;100286.03;;;2.39;nan
55685;BME280;41883;49.544;8.646;2023-02-22T05:52:16;100284.78;;;2.31;nan
55685;BME280;41883;49.544;8.646;2023-02-22T05:54:42;100279.25;;;2.23;nan
55685;BME280;41883;49.544;8.646;2023-02-22T05:57:08;100278.94;;;2.15;nan
55685;BME280;41883;49.544;8.646;2023-02-22T05:59:33;100279.03;;;2.13;nan
55685;BME280;41883;49.544;8.646;2023-02-22T06:01:59;100275.81;;;2.10;nan
55685;BME280;41883;49.544;8.646;2023-02-22T06:04:24;100284.56;;;2.09;nan
55685;BME280;41883;49.544;8.646;2023-02-22T06:06:50;100281.13;;;2.08;nan
55685;BME280;41883;49.544;8.646;2023-02-22T06:09:15;100281.03;;;2.10;nan
55685;BME280;41883;49.544;8.646;2023-02-22T06:11:41;100284.16;;;2.15;nan
55685;BME280;41883;49.544;8.646;2023-02-22T06:14:06;100288.22;;;2.19;nan
55685;BME280;41883;49.544;8.646;2023-02-22T06:16:32;100285.50;;;2.21;nan
55685;BME280;41883;49.544;8.646;2023-02-22T06:18:57;100293.34;;;2.21;nan
55685;BME280;41883;49.544;8.646;2023-02-22T06:21:23;100294.16;;;2.21;nan
55685;BME280;41883;49.544;8.646;2023-02-22T06:23:49;100300.34;;;2.20;nan
55685;BME280;41883;49.544;8.646;2023-02-22T06:26:15;100294.47;;;2.17;nan
55685;BME280;41883;49.544;8.646;2023-02-22T06:28:40;100304.91;;;2.17;nan
55685;BME280;41883;49.544;8.646;2023-02-22T06:31:05;100311.91;;;2.16;nan
55685;BME280;41883;49.544;8.646;2023-02-22T06:33:31;100312.56;;;2.20;nan
55685;BME280;41883;49.544;8.646;2023-02-22T06:35:56;100325.28;;;2.24;nan
55685;BME280;41883;49.544;8.646;2023-02-22T06:38:22;100324.75;;;2.32;nan
55685;BME280;41883;49.544;8.646;2023-02-22T06:40:47;100318.41;;;2.36;nan
55685;BME280;41883;49.544;8.646;2023-02-22T06:43:12;100318.72;;;2.44;nan
55685;BME280;41883;49.544;8.646;2023-02-22T06:45:37;100328.53;;;2.53;nan
55685;BME280;41883;49.544;8.646;2023-02-22T06:48:03;100321.84;;;2.62;nan
55685;BME280;41883;49.544;8.646;2023-02-22T06:50:29;100335.28;;;2.69;nan
55685;BME280;41883;49.544;8.646;2023-02-22T06:52:55;100328.50;;;2.79;nan
55685;BME280;41883;49.544;8.646;2023-02-22T06:55:22;100332.69;;;2.82;nan
55685;BME280;41883;49.544;8.646;2023-02-22T06:57:47;100329.75;;;2.86;nan
55685;BME280;41883;49.544;8.646;2023-02-22T07:00:14;100328.56;;;2.90;nan
55685;BME280;41883;49.544;8.646;2023-02-22T07:02:39;100333.28;;;2.98;nan
55685;BME280;41883;49.544;8.646;2023-02-22T07:05:04;100334.38;;;3.07;nan
55685;BME280;41883;49.544;8.646;2023-02-22T07:07:30;100337.31;;;3.15;nan
55685;BME280;41883;49.544;8.646;2023-02-22T07:09:55;100337.81;;;3.20;nan
55685;BME280;41883;49.544;8.646;2023-02-22T07:12:20;100341.75;;;3.26;nan
55685;BME280;41883;49.544;8.646;2023-02-22T07:14:45;100347.38;;;3.32;nan
55685;BME280;41883;49.544;8.646;2023-02-22T07:17:10;100339.50;;;3.45;nan
55685;BME280;41883;49.544;8.646;2023-02-22T07:19:36;100348.03;;;3.60;nan
55685;BME280;41883;49.544;8.646;2023-02-22T07:22:01;100346.06;;;3.75;nan
55685;BME280;41883;49.544;8.646;2023-02-22T07:24:26;100350.41;;;3.87;nan
55685;BME280;41883;49.544;8.646;2023-02-22T07:26:54;100350.66;;;3.95;nan
55685;BME280;41883;49.544;8.646;2023-02-22T07:29:20;100336.88;;;4.04;nan
55685;BME280;41883;49.544;8.646;2023-02-22T07:31:46;100342.25;;;4.14;nan
55685;BME280;41883;49.544;8.646;2023-02-22T07:34:11;100350.16;;;4.25;nan
55685;BME280;41883;49.544;8.646;2023-02-22T07:36:38;100346.84;;;4.35;nan
55685;BME280;41883;49.544;8.646;2023-02-22T07:39:03;100342.47;;;4.46;nan
55685;BME280;41883;49.544;8.646;2023-02-22T07:41:28;100339.00;;;4.57;nan
55685;BME280;41883;49.544;8.646;2023-02-22T07:43:53;100336.28;;;4.70;nan
55685;BME280;41883;49.544;8.646;2023-02-22T07:46:19;100338.91;;;4.81;nan
55685;BME280;41883;49.544;8.646;2023-02-22T07:48:44;100338.91;;;4.93;nan
55685;BME280;41883;49.544;8.646;2023-02-22T07:51:09;100343.16;;;5.05;nan
55685;BME280;41883;49.544;8.646;2023-02-22T07:53:35;100335.31;;;5.16;nan
55685;BME280;41883;49.544;8.646;2023-02-22T07:56:01;100341.38;;;5.28;nan
55685;BME280;41883;49.544;8.646;2023-02-22T07:58:27;100350.03;;;5.40;nan
55685;BME280;41883;49.544;8.646;2023-02-22T08:00:53;100344.88;;;5.49;nan
55685;BME280;41883;49.544;8.646;2023-02-22T08:03:19;100335.31;;;5.60;nan
55685;BME280;41883;49.544;8.646;2023-02-22T08:05:46;100330.63;;;5.74;nan
55685;BME280;41883;49.544;8.646;2023-02-22T08:08:11;100339.03;;;5.89;nan
55685;BME280;41883;49.544;8.646;2023-02-22T08:10:36;100337.22;;;6.01;nan
55685;BME280;41883;49.544;8.646;2023-02-22T08:13:02;100338.09;;;6.11;nan
55685;BME280;41883;49.544;8.646;2023-02-22T08:15:29;100344.00;;;6.25;nan
55685;BME280;41883;49.544;8.646;2023-02-22T08:17:55;100335.59;;;6.31;nan
55685;BME280;41883;49.544;8.646;2023-02-22T08:20:21;100345.06;;;6.43;nan
55685;BME280;41883;49.544;8.646;2023-02-22T08:22:47;100340.13;;;6.50;nan
55685;BME280;41883;49.544;8.646;2023-02-22T08:25:12;100341.00;;;6.60;nan
55685;BME280;41883;49.544;8.646;2023-02-22T08:27:41;100342.03;;;6.69;nan
55685;BME280;41883;49.544;8.646;2023-02-22T08:30:08;100333.91;;;6.81;nan
55685;BME280;41883;49.544;8.646;2023-02-22T08:32:34;100339.38;;;6.90;nan
55685;BME280;41883;49.544;8.646;2023-02-22T08:35:01;100337.88;;;6.97;nan
55685;BME280;41883;49.544;8.646;2023-02-22T08:37:26;100341.75;;;7.02;nan
55685;BME280;41883;49.544;8.646;2023-02-22T08:39:52;100337.19;;;7.05;nan
55685;BME280;41883;49.544;8.646;2023-02-22T08:42:17;100331.53;;;7.09;nan
55685;BME280;41883;49.544;8.646;2023-02-22T08:44:42;100329.91;;;7.18;nan
55685;BME280;41883;49.544;8.646;2023-02-22T08:47:08;100334.22;;;7.29;nan
55685;BME280;41883;49.544;8.646;2023-02-22T08:49:33;100338.78;;;7.36;nan
55685;BME280;41883;49.544;8.646;2023-02-22T08:51:58;100328.56;;;7.43;nan
55685;BME280;41883;49.544;8.646;2023-02-22T08:54:23;100336.47;;;7.53;nan
55685;BME280;41883;49.544;8.646;2023-02-22T08:56:49;100348.81;;;7.62;nan
55685;BME280;41883;49.544;8.646;2023-02-22T08:59:15;100345.34;;;7.71;nan
55685;BME280;41883;49.544;8.646;2023-02-22T09:01:40;100341.75;;;7.82;nan
55685;BME280;41883;49.544;8.646;2023-02-22T09:04:05;100352.84;;;7.95;nan
55685;BME280;41883;49.544;8.646;2023-02-22T09:06:31;100344.94;;;8.05;nan
55685;BME280;41883;49.544;8.646;2023-02-22T09:08:56;100344.91;;;8.15;nan
55685;BME280;41883;49.544;8.646;2023-02-22T09:11:21;100338.81;;;8.24;nan
55685;BME280;41883;49.544;8.646;2023-02-22T09:13:46;100342.41;;;8.33;nan
55685;BME280;41883;49.544;8.646;2023-02-22T09:16:11;100334.22;;;8.45;nan
55685;BME280;41883;49.544;8.646;2023-02-22T09:18:36;100336.00;;;8.55;nan
55685;BME280;41883;49.544;8.646;2023-02-22T09:21:02;100337.63;;;8.65;nan
55685;BME280;41883;49.544;8.646;2023-02-22T09:23:27;100339.84;;;8.70;nan
55685;BME280;41883;49.544;8.646;2023-02-22T09:25:53;100330.22;;;8.79;nan
55685;BME280;41883;49.544;8.646;2023-02-22T09:28:19;100335.75;;;8.85;nan
55685;BME280;41883;49.544;8.646;2023-02-22T09:30:44;100344.31;;;8.97;nan
55685;BME280;41883;49.544;8.646;2023-02-22T09:33:10;100322.72;;;9.11;nan
55685;BME280;41883;49.544;8.646;2023-02-22T09:35:37;100321.47;;;9.33;nan
55685;BME280;41883;49.544;8.646;2023-02-22T09:38:06;100315.09;;;9.54;nan
55685;BME280;41883;49.544;8.646;2023-02-22T09:40:32;100313.75;;;9.68;nan
55685;BME280;41883;49.544;8.646;2023-02-22T09:48:30;100302.28;;;10.03;nan
55685;BME280;41883;49.544;8.646;2023-02-22T09:50:58;100306.56;;;10.22;nan
55685;BME280;41883;49.544;8.646;2023-02-22T09:53:29;100304.59;;;10.24;nan
55685;BME280;41883;49.544;8.646;2023-02-22T09:56:00;100301.25;;;10.40;nan
55685;BME280;41883;49.544;8.646;2023-02-22T09:58:35;100297.50;;;10.51;nan
55685;BME280;41883;49.544;8.646;2023-02-22T10:01:17;100291.81;;;10.63;nan
55685;BME280;41883;49.544;8.646;2023-02-22T10:06:12;100294.53;;;10.80;nan
55685;BME280;41883;49.544;8.646;2023-02-22T10:08:39;100298.38;;;10.94;nan
55685;BME280;41883;49.544;8.646;2023-02-22T10:14:04;100288.81;;;11.01;nan
55685;BME280;41883;49.544;8.646;2023-02-22T10:26:48;100279.19;;;11.67;nan
55685;BME280;41883;49.544;8.646;2023-02-22T10:29:57;100279.84;;;11.69;nan
55685;BME280;41883;49.544;8.646;2023-02-22T10:32:04;100288.31;;;11.89;nan
55685;BME280;41883;49.544;8.646;2023-02-22T10:34:31;100283.19;;;11.96;nan
55685;BME280;41883;49.544;8.646;2023-02-22T10:37:42;100270.91;;;12.19;nan
55685;BME280;41883;49.544;8.646;2023-02-22T10:39:42;100282.72;;;12.64;nan
55685;BME280;41883;49.544;8.646;2023-02-22T10:42:09;100278.94;;;13.29;nan
55685;BME280;41883;49.544;8.646;2023-02-22T10:44:35;100275.13;;;13.78;nan
55685;BME280;41883;49.544;8.646;2023-02-22T10:47:01;100273.66;;;14.43;nan
55685;BME280;41883;49.544;8.646;2023-02-22T10:49:30;100276.38;;;15.09;nan
55685;BME280;41883;49.544;8.646;2023-02-22T10:51:59;100270.91;;;15.75;nan
55685;BME280;41883;49.544;8.646;2023-02-22T10:54:28;100265.31;;;16.20;nan
55685;BME280;41883;49.544;8.646;2023-02-22T10:56:54;100276.34;;;16.80;nan
55685;BME280;41883;49.544;8.646;2023-02-22T11:01:52;100270.22;;;17.47;nan
55685;BME280;41883;49.544;8.646;2023-02-22T11:04:18;100265.28;;;17.77;nan
55685;BME280;41883;49.544;8.646;2023-02-22T11:06:46;100264.47;;;18.03;nan
55685;BME280;41883;49.544;8.646;2023-02-22T11:09:19;100260.38;;;17.94;nan
55685;BME280;41883;49.544;8.646;2023-02-22T11:11:48;100255.41;;;18.96;nan
55685;BME280;41883;49.544;8.646;2023-02-22T11:14:27;100262.88;;;19.58;nan
55685;BME280;41883;49.544;8.646;2023-02-22T11:16:53;100077.56;;;20.03;nan
55685;BME280;41883;49.544;8.646;2023-02-22T11:19:28;100079.03;;;20.47;nan
55685;BME280;41883;49.544;8.646;2023-02-22T11:22:09;100073.91;;;20.64;nan
55685;BME280;41883;49.544;8.646;2023-02-22T11:24:49;100093.66;;;20.70;nan
55685;BME280;41883;49.544;8.646;2023-02-22T11:29:43;100071.44;;;20.63;nan
55685;BME280;41883;49.544;8.646;2023-02-22T11:32:15;100072.03;;;20.46;nan
55685;BME280;41883;49.544;8.646;2023-02-22T11:34:45;100055.13;;;20.46;nan
55685;BME280;41883;49.544;8.646;2023-02-22T11:39:35;100044.16;;;19.99;nan
55685;BME280;41883;49.544;8.646;2023-02-22T11:42:22;100054.75;;;19.75;nan
55685;BME280;41883;49.544;8.646;2023-02-22T11:44:47;100073.63;;;19.43;nan
55685;BME280;41883;49.544;8.646;2023-02-22T11:47:13;100221.81;;;18.94;nan
55685;BME280;41883;49.544;8.646;2023-02-22T11:49:39;100223.91;;;18.33;nan
55685;BME280;41883;49.544;8.646;2023-02-22T12:00:14;100212.19;;;17.41;nan
55685;BME280;41883;49.544;8.646;2023-02-22T12:15:27;100193.94;;;16.76;nan
55685;BME280;41883;49.544;8.646;2023-02-22T12:20:50;100190.28;;;16.36;nan
55685;BME280;41883;49.544;8.646;2023-02-22T12:23:19;100190.81;;;16.18;nan
55685;BME280;41883;49.544;8.646;2023-02-22T12:28:44;100185.53;;;15.97;nan
55685;BME280;41883;49.544;8.646;2023-02-22T12:31:31;100183.50;;;15.70;nan
55685;BME280;41883;49.544;8.646;2023-02-22T12:36:27;100182.59;;;15.57;nan
55685;BME280;41883;49.544;8.646;2023-02-22T12:38:58;100184.06;;;15.38;nan
55685;BME280;41883;49.544;8.646;2023-02-22T12:41:33;100178.75;;;15.44;nan
55685;BME280;41883;49.544;8.646;2023-02-22T12:46:36;100179.72;;;15.37;nan
55685;BME280;41883;49.544;8.646;2023-02-22T12:54:25;100176.31;;;15.43;nan
55685;BME280;41883;49.544;8.646;2023-02-22T12:57:00;100163.16;;;15.41;nan
55685;BME280;41883;49.544;8.646;2023-02-22T13:01:59;100163.06;;;15.28;nan
55685;BME280;41883;49.544;8.646;2023-02-22T13:04:28;100157.19;;;15.33;nan
55685;BME280;41883;49.544;8.646;2023-02-22T13:07:06;100159.84;;;15.33;nan
55685;BME280;41883;49.544;8.646;2023-02-22T13:09:47;100161.66;;;15.32;nan
55685;BME280;41883;49.544;8.646;2023-02-22T13:17:31;100151.25;;;15.37;nan
55685;BME280;41883;49.544;8.646;2023-02-22T13:27:39;100137.69;;;15.60;nan
55685;BME280;41883;49.544;8.646;2023-02-22T13:30:17;100149.63;;;15.64;nan
55685;BME280;41883;49.544;8.646;2023-02-22T13:38:09;100128.84;;;15.53;nan
55685;BME280;41883;49.544;8.646;2023-02-22T13:40:51;100130.69;;;15.53;nan
55685;BME280;41883;49.544;8.646;2023-02-22T13:54:05;100135.09;;;15.17;nan
55685;BME280;41883;49.544;8.646;2023-02-22T13:56:31;100126.06;;;15.12;nan
55685;BME280;41883;49.544;8.646;2023-02-22T13:58:58;100127.25;;;15.09;nan
55685;BME280;41883;49.544;8.646;2023-02-22T14:02:06;100128.06;;;15.10;nan
55685;BME280;41883;49.544;8.646;2023-02-22T14:06:43;100127.03;;;15.11;nan
55685;BME280;41883;49.544;8.646;2023-02-22T14:09:13;100126.88;;;15.12;nan
55685;BME280;41883;49.544;8.646;2023-02-22T14:11:46;100124.59;;;15.09;nan
55685;BME280;41883;49.544;8.646;2023-02-22T14:14:13;100126.53;;;15.22;nan
55685;BME280;41883;49.544;8.646;2023-02-22T14:16:41;100119.81;;;15.26;nan
55685;BME280;41883;49.544;8.646;2023-02-22T14:19:19;100112.81;;;15.25;nan
55685;BME280;41883;49.544;8.646;2023-02-22T14:22:00;100119.81;;;15.26;nan
55685;BME280;41883;49.544;8.646;2023-02-22T14:24:30;100118.72;;;15.20;nan
55685;BME280;41883;49.544;8.646;2023-02-22T14:27:06;100111.94;;;15.18;nan
55685;BME280;41883;49.544;8.646;2023-02-22T14:29:33;100113.38;;;15.14;nan
55685;BME280;41883;49.544;8.646;2023-02-22T14:32:04;100113.38;;;15.14;nan
55685;BME280;41883;49.544;8.646;2023-02-22T14:37:10;100114.38;;;15.13;nan
55685;BME280;41883;49.544;8.646;2023-02-22T14:39:44;100109.44;;;15.10;nan
55685;BME280;41883;49.544;8.646;2023-02-22T14:42:17;100110.25;;;15.10;nan
55685;BME280;41883;49.544;8.646;2023-02-22T14:47:17;100113.56;;;15.12;nan
55685;BME280;41883;49.544;8.646;2023-02-22T14:49:45;100107.19;;;15.13;nan
55685;BME280;41883;49.544;8.646;2023-02-22T14:52:25;100110.72;;;15.14;nan
55685;BME280;41883;49.544;8.646;2023-02-22T14:54:58;100115.00;;;15.15;nan
55685;BME280;41883;49.544;8.646;2023-02-22T15:02:44;100103.72;;;15.13;nan
55685;BME280;41883;49.544;8.646;2023-02-22T15:05:11;100106.94;;;15.08;nan
55685;BME280;41883;49.544;8.646;2023-02-22T15:07:37;100107.16;;;15.06;nan
55685;BME280;41883;49.544;8.646;2023-02-22T15:10:04;100107.72;;;15.02;nan
55685;BME280;41883;49.544;8.646;2023-02-22T15:12:30;100111.31;;;14.94;nan
55685;BME280;41883;49.544;8.646;2023-02-22T15:15:12;100101.25;;;14.90;nan
55685;BME280;41883;49.544;8.646;2023-02-22T15:17:41;100102.59;;;14.79;nan
55685;BME280;41883;49.544;8.646;2023-02-22T15:20:14;100098.00;;;14.73;nan
55685;BME280;41883;49.544;8.646;2023-02-22T15:22:40;100094.03;;;14.62;nan
55685;BME280;41883;49.544;8.646;2023-02-22T15:25:06;100096.16;;;14.52;nan
55685;BME280;41883;49.544;8.646;2023-02-22T15:27:33;100095.59;;;14.41;nan
55685;BME280;41883;49.544;8.646;2023-02-22T15:30:03;100090.19;;;14.35;nan
55685;BME280;41883;49.544;8.646;2023-02-22T15:35:41;100100.31;;;14.24;nan
55685;BME280;41883;49.544;8.646;2023-02-22T15:37:45;100084.47;;;14.16;nan
55685;BME280;41883;49.544;8.646;2023-02-22T15:40:15;100088.50;;;14.12;nan
55685;BME280;41883;49.544;8.646;2023-02-22T15:42:47;100087.78;;;14.03;nan
55685;BME280;41883;49.544;8.646;2023-02-22T15:45:17;100084.03;;;13.98;nan
55685;BME280;41883;49.544;8.646;2023-02-22T15:47:44;100085.13;;;13.89;nan